createdAt,value
2023-01-20T00:01:25.959Z,40.60
2023-01-20T00:03:54.851Z,39.22
2023-01-20T00:06:22.416Z,37.30
2023-01-20T00:08:53.602Z,36.47
2023-01-20T00:11:21.451Z,47.78
2023-01-20T00:13:49.030Z,46.17
2023-01-20T00:16:16.012Z,43.63
2023-01-20T00:18:42.966Z,42.35
2023-01-20T00:21:14.171Z,38.05
2023-01-20T00:23:41.621Z,33.05
2023-01-20T00:26:14.208Z,36.00
2023-01-20T00:28:41.165Z,34.45
2023-01-20T00:31:12.136Z,38.78
2023-01-20T00:33:39.270Z,34.90
2023-01-20T00:36:06.863Z,30.70
2023-01-20T00:38:33.916Z,29.95
2023-01-20T00:41:00.876Z,29.65
2023-01-20T00:43:28.022Z,28.17
2023-01-20T00:45:55.007Z,35.72
2023-01-20T00:48:22.124Z,37.45
2023-01-20T00:50:49.553Z,37.15
2023-01-20T00:53:17.663Z,34.05
2023-01-20T00:55:44.714Z,32.10
2023-01-20T00:58:11.699Z,32.05
2023-01-20T01:00:38.840Z,33.55
2023-01-20T01:03:05.903Z,31.02
2023-01-20T01:05:33.293Z,28.92
2023-01-20T01:08:02.146Z,30.58
2023-01-20T01:10:29.100Z,32.08
2023-01-20T01:12:56.091Z,32.75
2023-01-20T01:15:23.155Z,31.10
2023-01-20T01:17:50.188Z,30.55
2023-01-20T01:20:17.556Z,30.83
2023-01-20T01:22:44.477Z,29.73
2023-01-20T01:25:11.831Z,29.75
2023-01-20T01:27:38.907Z,32.72
2023-01-20T01:30:06.772Z,32.00
2023-01-20T01:32:33.747Z,33.80
2023-01-20T01:35:00.670Z,31.83
2023-01-20T01:37:28.884Z,33.35
2023-01-20T01:39:55.820Z,32.65
2023-01-20T01:42:26.990Z,35.78
2023-01-20T01:45:13.101Z,34.20
2023-01-20T01:47:42.250Z,35.28
2023-01-20T01:50:12.704Z,35.63
2023-01-20T01:52:43.938Z,40.08
2023-01-20T01:55:12.028Z,35.88
2023-01-20T01:57:39.272Z,34.63
2023-01-20T02:00:07.270Z,32.47
2023-01-20T02:02:36.249Z,32.85
2023-01-20T02:05:03.635Z,32.67
2023-01-20T02:07:34.049Z,36.95
2023-01-20T02:10:01.961Z,36.38
2023-01-20T02:12:30.088Z,34.15
2023-01-20T02:14:59.743Z,34.97
2023-01-20T02:17:54.013Z,34.67
2023-01-20T02:23:03.906Z,34.15
2023-01-20T02:25:36.741Z,35.63
2023-01-20T02:28:06.706Z,37.10
2023-01-20T02:31:07.120Z,34.88
2023-01-20T02:33:59.781Z,36.03
2023-01-20T02:36:38.389Z,34.42
2023-01-20T02:39:27.282Z,32.03
2023-01-20T02:42:00.188Z,36.45
2023-01-20T02:44:59.995Z,33.85
2023-01-20T02:47:29.769Z,39.08
2023-01-20T02:50:05.812Z,34.97
2023-01-20T02:52:37.592Z,33.30
2023-01-20T02:55:09.465Z,34.15
2023-01-20T02:57:42.523Z,36.22
2023-01-20T03:00:23.100Z,33.70
2023-01-20T03:02:53.445Z,34.15
2023-01-20T03:05:51.282Z,34.10
2023-01-20T03:08:20.049Z,33.55
2023-01-20T03:10:49.602Z,33.72
2023-01-20T03:13:26.255Z,33.08
2023-01-20T03:16:00.235Z,33.53
2023-01-20T03:18:30.230Z,34.72
2023-01-20T03:20:59.805Z,32.17
2023-01-20T03:23:30.320Z,34.50
2023-01-20T03:25:58.027Z,35.33
2023-01-20T03:28:25.349Z,36.05
2023-01-20T03:30:55.469Z,34.80
2023-01-20T03:33:22.956Z,32.05
2023-01-20T03:35:50.556Z,34.58
2023-01-20T03:38:17.584Z,34.17
2023-01-20T03:41:00.614Z,32.05
2023-01-20T03:44:11.880Z,33.40
2023-01-20T03:46:53.767Z,32.45
2023-01-20T03:49:34.522Z,34.95
2023-01-20T03:52:11.543Z,34.88
2023-01-20T03:54:46.916Z,34.22
2023-01-20T03:57:19.825Z,35.22
2023-01-20T03:59:49.905Z,34.95
2023-01-20T04:02:17.016Z,33.90
2023-01-20T04:04:47.675Z,37.78
2023-01-20T04:07:25.709Z,39.13
2023-01-20T04:09:58.358Z,40.22
2023-01-20T04:12:25.433Z,36.10
2023-01-20T04:14:52.403Z,36.50
2023-01-20T04:17:19.389Z,38.40
2023-01-20T04:19:46.534Z,38.08
2023-01-20T04:22:36.412Z,39.00
2023-01-20T04:25:06.832Z,35.95
2023-01-20T04:27:33.823Z,37.55
2023-01-20T04:30:00.840Z,39.50
2023-01-20T04:32:27.778Z,44.53
2023-01-20T04:34:54.760Z,39.85
2023-01-20T04:37:21.704Z,45.33
2023-01-20T04:39:48.916Z,46.00
2023-01-20T04:42:15.969Z,45.70
2023-01-20T04:44:42.952Z,43.33
2023-01-20T04:47:09.953Z,46.60
2023-01-20T04:49:37.104Z,47.80
2023-01-20T04:52:04.248Z,50.97
2023-01-20T04:54:31.292Z,51.53
2023-01-20T04:56:58.267Z,52.05
2023-01-20T04:59:25.214Z,48.75
2023-01-20T05:01:52.360Z,52.90
2023-01-20T05:04:19.465Z,50.28
2023-01-20T05:06:46.443Z,54.15
2023-01-20T05:09:15.572Z,54.97
2023-01-20T05:11:43.912Z,48.55
2023-01-20T05:14:12.612Z,47.95
2023-01-20T05:16:39.838Z,51.20
2023-01-20T05:19:06.836Z,51.47
2023-01-20T05:21:33.819Z,51.35
2023-01-20T05:24:00.856Z,58.00
2023-01-20T05:26:27.889Z,47.22
2023-01-20T05:28:54.947Z,49.38
2023-01-20T05:31:22.072Z,52.97
2023-01-20T05:33:49.082Z,62.25
2023-01-20T05:36:16.071Z,53.03
2023-01-20T05:38:43.093Z,58.40
2023-01-20T05:41:10.647Z,63.15
2023-01-20T05:43:37.788Z,55.63
2023-01-20T05:46:05.622Z,54.00
2023-01-20T05:48:32.712Z,58.75
2023-01-20T05:50:59.684Z,53.90
2023-01-20T05:53:26.686Z,64.75
2023-01-20T05:56:04.928Z,60.60
2023-01-20T05:58:32.836Z,55.88
2023-01-20T06:01:11.372Z,58.13
2023-01-20T06:03:38.477Z,55.08
2023-01-20T06:06:07.954Z,61.50
2023-01-20T06:08:35.666Z,54.45
2023-01-20T06:11:02.691Z,59.90
2023-01-20T06:13:29.711Z,56.55
2023-01-20T06:15:57.111Z,62.13
2023-01-20T06:18:24.631Z,55.60
2023-01-20T06:20:51.608Z,58.70
2023-01-20T06:23:18.685Z,58.15
2023-01-20T06:25:45.660Z,60.63
2023-01-20T06:28:12.668Z,62.08
2023-01-20T06:30:43.169Z,57.05
2023-01-20T06:33:10.997Z,56.50
2023-01-20T06:35:38.459Z,60.15
2023-01-20T06:38:05.537Z,67.95
2023-01-20T06:40:32.856Z,62.42
2023-01-20T06:42:59.920Z,65.05
2023-01-20T06:45:27.033Z,60.05
2023-01-20T06:47:54.045Z,68.20
2023-01-20T06:50:20.996Z,57.78
2023-01-20T06:52:48.043Z,57.00
2023-01-20T06:55:15.289Z,60.45
2023-01-20T06:57:42.493Z,55.58
2023-01-20T07:00:10.151Z,55.38
2023-01-20T07:02:37.187Z,64.20
2023-01-20T07:05:08.222Z,59.83
2023-01-20T07:07:35.516Z,58.80
2023-01-20T07:10:03.692Z,57.17
2023-01-20T07:12:30.639Z,58.20
2023-01-20T07:14:57.652Z,59.67
2023-01-20T07:17:24.601Z,62.92
2023-01-20T07:19:51.567Z,66.90
2023-01-20T07:22:18.539Z,65.05
2023-01-20T07:24:45.551Z,70.10
2023-01-20T07:27:12.543Z,63.95
2023-01-20T07:29:40.750Z,65.97
2023-01-20T07:32:07.768Z,62.03
2023-01-20T07:34:34.747Z,58.88
2023-01-20T07:37:02.595Z,66.57
2023-01-20T07:39:29.644Z,57.92
2023-01-20T07:41:56.620Z,58.78
2023-01-20T07:44:23.644Z,54.95
2023-01-20T07:46:51.748Z,61.75
2023-01-20T07:49:18.736Z,64.90
2023-01-20T07:51:45.725Z,57.13
2023-01-20T07:54:12.692Z,62.20
2023-01-20T07:56:39.764Z,60.45
2023-01-20T07:59:06.704Z,62.47
2023-01-20T08:01:34.045Z,59.58
2023-01-20T08:04:01.856Z,57.20
2023-01-20T08:06:30.611Z,55.50
2023-01-20T08:09:01.734Z,53.17
2023-01-20T08:11:29.199Z,55.88
2023-01-20T08:13:56.189Z,50.65
2023-01-20T08:16:23.316Z,57.65
2023-01-20T08:18:53.112Z,56.55
2023-01-20T08:21:24.300Z,53.20
2023-01-20T08:23:51.772Z,56.33
2023-01-20T08:26:19.688Z,51.58
2023-01-20T08:28:47.402Z,51.90
2023-01-20T08:31:17.548Z,49.75
2023-01-20T08:33:45.428Z,49.72
2023-01-20T08:36:14.012Z,52.33
2023-01-20T08:38:41.552Z,44.17
2023-01-20T08:41:14.852Z,44.15
2023-01-20T08:43:41.921Z,40.97
2023-01-20T08:46:12.317Z,40.17
2023-01-20T08:48:40.606Z,42.10
2023-01-20T08:51:10.716Z,40.58
2023-01-20T08:53:37.869Z,39.97
2023-01-20T08:56:05.071Z,42.90
2023-01-20T08:58:32.334Z,40.00
2023-01-20T09:00:59.908Z,42.60
2023-01-20T09:03:27.381Z,41.72
2023-01-20T09:05:54.473Z,35.80
2023-01-20T09:08:21.588Z,41.17
2023-01-20T09:10:48.649Z,43.85
2023-01-20T09:13:15.674Z,35.90
2023-01-20T09:15:42.712Z,34.83
2023-01-20T09:18:09.685Z,34.58
2023-01-20T09:20:37.565Z,34.65
2023-01-20T09:23:04.770Z,34.55
2023-01-20T09:25:31.706Z,33.47
2023-01-20T09:28:02.030Z,28.33
2023-01-20T09:30:29.175Z,29.98
2023-01-20T09:32:58.129Z,32.25
2023-01-20T09:35:25.191Z,29.63
2023-01-20T09:38:11.266Z,31.75
2023-01-20T09:41:07.074Z,24.88
2023-01-20T09:44:07.329Z,24.50
2023-01-20T09:46:37.605Z,27.02
2023-01-20T09:49:57.541Z,23.67
2023-01-20T09:52:51.831Z,23.05
2023-01-20T09:55:45.386Z,26.30
2023-01-20T09:58:55.852Z,21.92
2023-01-20T10:01:31.070Z,24.17
2023-01-20T10:04:25.741Z,24.52
2023-01-20T10:09:35.869Z,25.85
2023-01-20T10:12:12.982Z,28.80
2023-01-20T10:14:47.338Z,27.67
2023-01-20T10:17:31.901Z,25.80
2023-01-20T10:20:04.134Z,26.75
2023-01-20T10:22:55.711Z,27.95
2023-01-20T10:25:28.334Z,26.67
2023-01-20T10:28:11.673Z,27.92
2023-01-20T10:30:39.913Z,28.87
2023-01-20T10:33:15.160Z,28.88
2023-01-20T10:35:49.771Z,28.83
2023-01-20T10:38:53.939Z,26.83
2023-01-20T10:41:52.679Z,26.80
2023-01-20T10:44:19.642Z,30.73
2023-01-20T10:47:04.401Z,28.95
2023-01-20T10:49:49.590Z,26.20
2023-01-20T10:52:40.266Z,27.77
2023-01-20T10:55:28.834Z,29.23
2023-01-20T10:58:08.367Z,26.55
2023-01-20T11:00:35.872Z,27.40
2023-01-20T11:03:06.287Z,26.05
2023-01-20T11:05:38.286Z,27.60
2023-01-20T11:08:31.473Z,25.67
2023-01-20T11:11:01.925Z,25.65
2023-01-20T11:13:28.919Z,25.55
2023-01-20T11:16:01.093Z,22.85
2023-01-20T11:18:30.187Z,23.33
2023-01-20T11:21:07.160Z,24.73
2023-01-20T11:23:52.254Z,23.33
2023-01-20T11:26:37.200Z,24.48
2023-01-20T11:29:10.257Z,26.45
2023-01-20T11:31:52.382Z,38.90
2023-01-20T11:34:29.333Z,46.05
2023-01-20T11:37:05.374Z,27.73
2023-01-20T11:40:05.843Z,23.10
2023-01-20T11:42:46.093Z,22.17
2023-01-20T11:45:32.697Z,22.40
2023-01-20T11:48:04.332Z,23.48
2023-01-20T11:50:41.193Z,20.52
2023-01-20T11:53:24.784Z,20.58
2023-01-20T11:55:58.007Z,20.52
2023-01-20T11:58:28.479Z,19.35
2023-01-20T12:01:06.808Z,19.15
2023-01-20T12:04:11.012Z,20.08
2023-01-20T12:07:09.853Z,19.35
2023-01-20T12:09:43.962Z,21.13
2023-01-20T12:12:26.340Z,22.17
2023-01-20T12:15:02.231Z,20.73
2023-01-20T12:17:41.436Z,20.40
2023-01-20T12:20:39.472Z,19.48
2023-01-20T12:23:46.274Z,20.10
2023-01-20T12:26:18.235Z,18.13
2023-01-20T12:29:06.451Z,18.65
2023-01-20T12:31:34.114Z,18.65
2023-01-20T12:34:11.427Z,18.25
2023-01-20T12:36:57.732Z,18.17
2023-01-20T12:39:46.297Z,17.95
2023-01-20T12:42:16.420Z,18.48
2023-01-20T12:45:04.235Z,18.55
2023-01-20T12:47:57.190Z,18.05
2023-01-20T12:50:56.826Z,17.60
2023-01-20T12:53:56.339Z,25.25
2023-01-20T12:56:50.873Z,30.48
2023-01-20T12:59:47.335Z,24.25
2023-01-20T13:02:18.725Z,18.80
2023-01-20T13:05:07.581Z,17.83
2023-01-20T13:08:22.141Z,19.48
2023-01-20T13:11:15.475Z,18.83
2023-01-20T13:14:09.373Z,18.85
2023-01-20T13:16:45.278Z,18.83
2023-01-20T13:19:40.025Z,18.67
2023-01-20T13:22:25.991Z,18.30
2023-01-20T13:24:55.079Z,19.08
2023-01-20T13:27:30.428Z,18.42
2023-01-20T13:29:59.435Z,18.88
2023-01-20T13:32:45.314Z,19.35
2023-01-20T13:35:18.116Z,19.38
2023-01-20T13:37:57.745Z,19.67
2023-01-20T13:40:36.489Z,18.98
2023-01-20T13:43:05.069Z,18.45
2023-01-20T13:45:32.067Z,18.58
2023-01-20T13:48:08.452Z,18.45
2023-01-20T13:50:39.084Z,18.80
2023-01-20T13:53:21.859Z,20.45
2023-01-20T13:55:48.780Z,19.95
2023-01-20T13:58:19.530Z,18.45
2023-01-20T14:00:50.377Z,18.50
2023-01-20T14:03:20.083Z,18.17
2023-01-20T14:05:56.806Z,19.08
2023-01-20T14:08:25.641Z,20.05
2023-01-20T14:11:03.031Z,19.20
2023-01-20T14:13:29.971Z,41.17
2023-01-20T14:15:57.051Z,25.63
2023-01-20T14:18:26.732Z,22.90
2023-01-20T14:21:24.005Z,21.23
2023-01-20T14:23:51.638Z,21.23
2023-01-20T14:26:30.059Z,22.23
2023-01-20T14:29:03.445Z,20.73
2023-01-20T14:31:45.565Z,22.23
2023-01-20T14:34:29.675Z,22.75
2023-01-20T14:36:59.457Z,22.02
2023-01-20T14:39:28.873Z,22.02
2023-01-20T14:42:01.808Z,22.65
2023-01-20T14:44:32.666Z,22.27
2023-01-20T14:47:02.147Z,23.58
2023-01-20T14:49:39.657Z,23.02
2023-01-20T14:52:19.183Z,22.45
2023-01-20T14:54:46.707Z,21.65
2023-01-20T14:57:25.329Z,23.23
2023-01-20T15:00:30.580Z,23.05
2023-01-20T15:03:28.450Z,22.83
2023-01-20T15:06:00.357Z,22.80
2023-01-20T15:08:33.457Z,23.27
2023-01-20T15:11:11.439Z,23.17
2023-01-20T15:13:39.770Z,23.58
2023-01-20T15:16:53.709Z,22.17
2023-01-20T15:19:32.176Z,25.58
2023-01-20T15:22:17.982Z,25.58
2023-01-20T15:24:49.740Z,24.40
2023-01-20T15:27:35.929Z,22.38
2023-01-20T15:30:15.926Z,24.35
2023-01-20T15:32:43.119Z,23.15
2023-01-20T15:35:15.133Z,23.85
2023-01-20T15:37:43.908Z,23.35
2023-01-20T15:40:22.244Z,21.85
2023-01-20T15:42:50.097Z,22.80
2023-01-20T15:45:18.166Z,22.52
2023-01-20T15:47:46.721Z,23.70
2023-01-20T15:50:22.817Z,23.27
2023-01-20T15:52:50.291Z,23.67
2023-01-20T15:55:19.328Z,22.98
2023-01-20T15:57:50.965Z,22.38
2023-01-20T16:00:23.524Z,22.50
2023-01-20T16:02:50.678Z,24.83
2023-01-20T16:05:18.060Z,25.65
2023-01-20T16:07:47.842Z,24.67
2023-01-20T16:10:17.820Z,24.88
2023-01-20T16:12:45.904Z,23.67
2023-01-20T16:15:18.353Z,25.27
2023-01-20T16:17:45.829Z,27.63
2023-01-20T16:20:21.852Z,25.08
2023-01-20T16:22:48.941Z,25.15
2023-01-20T16:25:16.480Z,22.75
2023-01-20T16:27:43.814Z,26.27
2023-01-20T16:30:16.510Z,22.92
2023-01-20T16:32:46.320Z,29.85
2023-01-20T16:35:15.043Z,25.70
2023-01-20T16:37:42.450Z,27.58
2023-01-20T16:40:20.339Z,25.52
2023-01-20T16:42:48.469Z,26.45
2023-01-20T16:45:34.753Z,25.45
2023-01-20T16:48:01.787Z,32.13
2023-01-20T16:50:28.913Z,41.67
2023-01-20T16:52:56.649Z,45.30
2023-01-20T16:55:24.249Z,50.78
2023-01-20T16:57:51.206Z,49.67
2023-01-20T17:00:19.430Z,50.88
2023-01-20T17:02:52.970Z,49.15
2023-01-20T17:05:22.843Z,41.63
2023-01-20T17:07:50.648Z,38.60
2023-01-20T17:10:18.579Z,37.80
2023-01-20T17:12:48.721Z,34.25
2023-01-20T17:15:16.004Z,29.08
2023-01-20T17:17:43.417Z,31.38
2023-01-20T17:20:10.858Z,29.52
2023-01-20T17:22:39.547Z,28.33
2023-01-20T17:25:08.724Z,28.73
2023-01-20T17:27:37.076Z,28.13
2023-01-20T17:30:07.615Z,38.45
2023-01-20T17:32:35.720Z,36.40
2023-01-20T17:35:03.112Z,43.40
2023-01-20T17:37:30.238Z,37.28
2023-01-20T17:39:57.218Z,41.42
2023-01-20T17:42:24.214Z,37.70
2023-01-20T17:44:51.149Z,37.17
2023-01-20T17:47:18.113Z,36.95
2023-01-20T17:49:45.152Z,34.13
2023-01-20T17:52:12.115Z,44.67
2023-01-20T17:54:39.136Z,38.80
2023-01-20T17:57:06.154Z,40.05
2023-01-20T17:59:33.170Z,41.65
2023-01-20T18:02:00.235Z,39.15
2023-01-20T18:04:27.365Z,36.65
2023-01-20T18:06:54.288Z,38.10
2023-01-20T18:09:21.229Z,33.22
2023-01-20T18:11:48.256Z,33.95
2023-01-20T18:14:15.224Z,47.28
2023-01-20T18:16:42.487Z,47.90
2023-01-20T18:19:18.524Z,58.25
2023-01-20T18:21:45.762Z,52.40
2023-01-20T18:24:13.486Z,43.78
2023-01-20T18:26:42.773Z,46.58
2023-01-20T18:29:17.054Z,35.22
2023-01-20T18:31:46.676Z,34.28
2023-01-20T18:34:15.876Z,32.97
2023-01-20T18:36:49.283Z,34.63
2023-01-20T18:39:17.496Z,33.53
2023-01-20T18:41:44.856Z,38.47
2023-01-20T18:44:12.079Z,34.50
2023-01-20T18:46:39.173Z,35.45
2023-01-20T18:49:09.242Z,33.63
2023-01-20T18:51:36.811Z,32.50
2023-01-20T18:54:10.585Z,30.90
2023-01-20T18:56:37.915Z,40.08
2023-01-20T18:59:06.859Z,33.50
2023-01-20T19:01:36.666Z,39.45
2023-01-20T19:04:05.306Z,39.47
2023-01-20T19:06:35.833Z,35.75
2023-01-20T19:09:04.552Z,33.72
2023-01-20T19:11:34.468Z,37.88
2023-01-20T19:14:02.060Z,39.70
2023-01-20T19:16:34.490Z,49.50
2023-01-20T19:19:03.166Z,57.58
2023-01-20T19:21:32.538Z,49.03
2023-01-20T19:24:01.664Z,46.40
2023-01-20T19:26:28.981Z,47.47
2023-01-20T19:28:59.999Z,46.83
2023-01-20T19:31:27.084Z,50.78
2023-01-20T19:33:54.132Z,69.45
2023-01-20T19:36:21.391Z,65.00
2023-01-20T19:38:48.432Z,50.20
2023-01-20T19:41:18.158Z,53.03
2023-01-20T19:43:45.923Z,56.50
2023-01-20T19:46:15.570Z,53.03
2023-01-20T19:48:42.606Z,52.00
2023-01-20T19:51:15.123Z,51.47
2023-01-20T19:53:44.181Z,51.90
2023-01-20T19:56:12.091Z,46.38
2023-01-20T19:58:40.301Z,48.05
2023-01-20T20:01:15.488Z,48.03
2023-01-20T20:03:43.148Z,45.45
2023-01-20T20:06:31.696Z,52.10
2023-01-20T20:09:06.450Z,45.30
2023-01-20T20:11:34.301Z,39.60
2023-01-20T20:14:03.104Z,36.33
2023-01-20T20:16:34.591Z,33.05
2023-01-20T20:19:02.125Z,30.77
2023-01-20T20:21:29.082Z,30.70
2023-01-20T20:23:58.898Z,31.50
2023-01-20T20:26:29.181Z,35.50
2023-01-20T20:28:56.624Z,37.05
2023-01-20T20:31:29.308Z,34.45
2023-01-20T20:34:00.626Z,39.25
2023-01-20T20:36:29.679Z,38.10
2023-01-20T20:38:58.867Z,39.38
2023-01-20T20:41:31.607Z,41.10
2023-01-20T20:44:00.685Z,40.90
2023-01-20T20:46:28.797Z,38.95
2023-01-20T20:48:59.336Z,40.78
2023-01-20T20:51:27.407Z,48.33
2023-01-20T20:53:56.292Z,41.92
2023-01-20T20:56:24.602Z,42.17
2023-01-20T20:59:01.288Z,39.63
2023-01-20T21:01:31.360Z,41.20
2023-01-20T21:04:00.644Z,44.70
2023-01-20T21:06:28.910Z,40.05
2023-01-20T21:08:55.992Z,42.35
2023-01-20T21:11:24.278Z,42.97
2023-01-20T21:13:52.136Z,46.58
2023-01-20T21:16:23.932Z,37.70
2023-01-20T21:18:52.771Z,44.83
2023-01-20T21:21:20.825Z,39.60
2023-01-20T21:23:52.824Z,46.33
2023-01-20T21:26:19.910Z,46.53
2023-01-20T21:28:49.351Z,51.70
2023-01-20T21:31:22.425Z,50.03
2023-01-20T21:33:58.609Z,51.67
2023-01-20T21:36:26.704Z,56.72
2023-01-20T21:38:53.676Z,55.90
2023-01-20T21:41:20.976Z,48.25
2023-01-20T21:44:08.069Z,50.33
2023-01-20T21:46:39.238Z,53.03
2023-01-20T21:49:26.071Z,51.83
2023-01-20T21:52:11.856Z,53.17
2023-01-20T21:54:40.579Z,51.20
2023-01-20T21:57:07.591Z,45.15
2023-01-20T21:59:34.609Z,46.40
2023-01-20T22:02:01.692Z,45.17
2023-01-20T22:04:28.707Z,49.28
2023-01-20T22:06:55.786Z,44.75
2023-01-20T22:09:22.904Z,43.55
2023-01-20T22:11:50.424Z,44.05
2023-01-20T22:14:17.835Z,43.42
2023-01-20T22:16:44.988Z,45.35
2023-01-20T22:19:13.704Z,46.38
2023-01-20T22:21:40.863Z,48.28
2023-01-20T22:24:08.787Z,49.13
2023-01-20T22:26:35.724Z,44.83
2023-01-20T22:29:02.841Z,52.60
2023-01-20T22:31:31.323Z,46.10
2023-01-20T22:33:59.480Z,50.78
2023-01-20T22:36:26.604Z,49.50
2023-01-20T22:38:54.090Z,49.30
2023-01-20T22:41:21.389Z,49.97
2023-01-20T22:43:50.533Z,55.67
2023-01-20T22:46:20.651Z,47.45
2023-01-20T22:48:48.345Z,46.35
2023-01-20T22:51:20.947Z,45.78
2023-01-20T22:53:48.355Z,40.10
2023-01-20T22:56:19.028Z,46.40
2023-01-20T22:58:46.363Z,50.45
2023-01-20T23:01:25.073Z,50.95
2023-01-20T23:03:56.489Z,46.63
2023-01-20T23:06:24.632Z,49.67
2023-01-20T23:08:51.660Z,46.97
2023-01-20T23:11:21.087Z,53.15
2023-01-20T23:13:48.470Z,46.67
2023-01-20T23:16:18.348Z,51.08
2023-01-20T23:18:46.453Z,46.75
2023-01-20T23:21:14.293Z,45.92
2023-01-20T23:23:41.397Z,57.55
2023-01-20T23:26:15.370Z,47.70
2023-01-20T23:28:43.199Z,46.88
2023-01-20T23:31:12.482Z,47.15
2023-01-20T23:33:41.834Z,50.30
2023-01-20T23:36:16.199Z,48.22
2023-01-20T23:38:44.654Z,46.78
2023-01-20T23:41:13.163Z,48.65
2023-01-20T23:43:41.147Z,43.78
2023-01-20T23:46:09.594Z,47.88
2023-01-20T23:48:36.905Z,47.38
2023-01-20T23:51:06.074Z,47.72
2023-01-20T23:53:36.288Z,49.88
2023-01-20T23:56:05.855Z,49.83
2023-01-20T23:58:33.051Z,52.35
